Weather at Paphos Airport Heliport

Public forecast

Using degrees Celsius for public forecast. Weather courtesy of forecast.io.

Closest aviation weather report (METAR) to Paphos Airport Heliport

Closest report is Paphos International Airport, 0.4 nm (0.7 km) ENE.

2024/06/14 12:30 (retrieved 19 minutes ago)

LCPH 141230Z 20005KT 160V240 9000 FEW030 32/24 Q1008 NOSIG

Closest aviation forecast (TAF) to Paphos Airport Heliport

Closest forecast is Paphos International Airport, 0.4 nm (0.7 km) ENE.

2024/06/14 12:31 (retrieved 18 minutes ago)

TAF LCPH 141130Z 1412/1512 24010KT 9999 FEW030 BECMG 1417/1419 01006KT BECMG 1509/1512 30012KT